createdAt,value
2022-09-01T00:00:53.881Z,2.90
2022-09-01T00:01:55.688Z,2.51
2022-09-01T00:02:57.894Z,2.59
2022-09-01T00:04:03.274Z,2.41
2022-09-01T00:05:07.493Z,1.94
2022-09-01T00:06:10.278Z,2.22
2022-09-01T00:07:14.736Z,2.45
2022-09-01T00:08:18.692Z,2.40
2022-09-01T00:09:23.370Z,2.86
2022-09-01T00:10:25.049Z,2.30
2022-09-01T00:11:29.181Z,2.40
2022-09-01T00:12:31.062Z,2.81
2022-09-01T00:13:33.979Z,2.79
2022-09-01T00:14:41.644Z,2.63
2022-09-01T00:15:44.090Z,2.92
2022-09-01T00:16:45.912Z,2.37
2022-09-01T00:17:51.844Z,2.62
2022-09-01T00:18:54.911Z,2.47
2022-09-01T00:19:56.622Z,2.53
2022-09-01T00:20:59.596Z,2.57
2022-09-01T00:22:02.545Z,2.53
2022-09-01T00:23:04.491Z,2.37
2022-09-01T00:24:06.809Z,2.43
2022-09-01T00:25:09.256Z,2.68
2022-09-01T00:26:11.798Z,2.41
2022-09-01T00:27:13.517Z,2.36
2022-09-01T00:28:15.238Z,2.30
2022-09-01T00:29:17.160Z,2.64
2022-09-01T00:30:19.821Z,2.97
2022-09-01T00:31:22.737Z,2.67
2022-09-01T00:32:25.343Z,2.28
2022-09-01T00:33:27.544Z,2.57
2022-09-01T00:34:29.190Z,2.97
2022-09-01T00:35:30.866Z,2.42
2022-09-01T00:36:38.517Z,2.48
2022-09-01T00:37:40.321Z,2.91
2022-09-01T00:38:43.155Z,2.77
2022-09-01T00:39:44.862Z,2.43
2022-09-01T00:40:47.039Z,2.60
2022-09-01T00:41:50.747Z,2.15
2022-09-01T00:42:53.778Z,2.39
2022-09-01T00:43:59.296Z,2.15
2022-09-01T00:45:00.935Z,2.15
2022-09-01T00:46:05.881Z,2.45
2022-09-01T00:47:10.882Z,2.63
2022-09-01T00:48:15.060Z,2.43
2022-09-01T00:49:38.757Z,2.34
2022-09-01T00:50:42.132Z,1.92
2022-09-01T00:51:49.125Z,2.29
2022-09-01T00:52:55.562Z,2.24
2022-09-01T00:54:00.136Z,2.26
2022-09-01T00:55:13.067Z,2.22
2022-09-01T00:56:15.820Z,2.12
2022-09-01T00:57:17.846Z,2.22
2022-09-01T00:58:21.230Z,2.31
2022-09-01T00:59:26.288Z,2.06
2022-09-01T01:00:31.019Z,2.12
2022-09-01T01:01:35.467Z,2.18
2022-09-01T01:02:39.000Z,2.40
2022-09-01T01:03:42.538Z,2.27
2022-09-01T01:04:44.304Z,2.01
2022-09-01T01:05:55.703Z,2.67
2022-09-01T01:07:02.273Z,2.18
2022-09-01T01:08:05.010Z,2.56
2022-09-01T01:09:06.805Z,2.39
2022-09-01T01:10:11.961Z,2.29
2022-09-01T01:11:18.752Z,2.27
2022-09-01T01:12:21.651Z,2.11
2022-09-01T01:13:25.991Z,1.97
2022-09-01T01:14:31.887Z,1.99
2022-09-01T01:15:33.847Z,1.93
2022-09-01T01:16:35.917Z,1.83
2022-09-01T01:17:38.325Z,2.16
2022-09-01T01:18:39.998Z,2.23
2022-09-01T01:20:13.883Z,2.42
2022-09-01T01:21:38.875Z,2.11
2022-09-01T01:23:05.687Z,2.11
2022-09-01T01:24:34.714Z,2.27
2022-09-01T01:25:44.675Z,2.59
2022-09-01T01:26:48.151Z,1.98
2022-09-01T01:27:50.935Z,2.20
2022-09-01T01:28:54.353Z,2.16
2022-09-01T01:29:57.665Z,2.11
2022-09-01T01:31:06.005Z,2.25
2022-09-01T01:32:13.112Z,2.12
2022-09-01T01:33:15.368Z,2.12
2022-09-01T01:34:18.458Z,2.36
2022-09-01T01:35:21.840Z,2.02
2022-09-01T01:36:32.617Z,2.07
2022-09-01T01:37:36.302Z,2.15
2022-09-01T01:38:38.452Z,2.12
2022-09-01T01:39:43.851Z,2.22
2022-09-01T01:40:45.836Z,2.22
2022-09-01T01:41:50.713Z,1.95
2022-09-01T01:42:54.313Z,2.19
2022-09-01T01:44:04.367Z,1.94
2022-09-01T01:45:08.146Z,2.00
2022-09-01T01:46:12.002Z,2.45
2022-09-01T01:47:14.290Z,2.06
2022-09-01T01:48:22.739Z,1.92
2022-09-01T01:49:29.225Z,1.90
2022-09-01T01:50:35.931Z,2.41
2022-09-01T01:51:38.101Z,2.21
2022-09-01T01:52:40.369Z,2.16
2022-09-01T01:53:52.638Z,2.36
2022-09-01T01:54:54.679Z,2.24
2022-09-01T01:55:58.414Z,2.06
2022-09-01T01:57:04.483Z,2.18
2022-09-01T01:58:09.836Z,2.18
2022-09-01T01:59:16.499Z,2.01
2022-09-01T02:00:27.093Z,2.30
2022-09-01T02:01:32.142Z,2.09
2022-09-01T02:02:34.187Z,2.18
2022-09-01T02:03:38.477Z,1.94
2022-09-01T02:04:41.626Z,2.04
2022-09-01T02:05:44.282Z,2.00
2022-09-01T02:06:48.265Z,2.06
2022-09-01T02:07:55.938Z,2.04
2022-09-01T02:09:03.727Z,2.13
2022-09-01T02:10:06.178Z,2.17
2022-09-01T02:11:08.886Z,2.22
2022-09-01T02:12:11.058Z,2.36
2022-09-01T02:13:20.876Z,2.35
2022-09-01T02:14:23.472Z,2.03
2022-09-01T02:15:25.533Z,2.06
2022-09-01T02:16:30.236Z,2.23
2022-09-01T02:17:32.052Z,2.18
2022-09-01T02:18:37.943Z,2.24
2022-09-01T02:19:43.265Z,2.06
2022-09-01T02:20:50.308Z,1.97
2022-09-01T02:21:56.051Z,2.25
2022-09-01T02:22:57.734Z,2.53
2022-09-01T02:24:03.626Z,2.17
2022-09-01T02:25:06.653Z,2.39
2022-09-01T02:26:16.685Z,2.53
2022-09-01T02:27:23.273Z,2.20
2022-09-01T02:28:28.505Z,2.22
2022-09-01T02:29:30.352Z,2.28
2022-09-01T02:30:37.775Z,2.31
2022-09-01T02:31:39.866Z,2.51
2022-09-01T02:32:41.856Z,2.45
2022-09-01T02:33:47.017Z,2.29
2022-09-01T02:34:53.578Z,2.58
2022-09-01T02:36:00.883Z,2.42
2022-09-01T02:37:03.270Z,2.43
2022-09-01T02:38:05.317Z,2.10
2022-09-01T02:39:08.137Z,2.37
2022-09-01T02:40:10.550Z,2.33
2022-09-01T02:41:14.288Z,2.35
2022-09-01T02:42:16.301Z,2.38
2022-09-01T02:43:20.349Z,2.38
2022-09-01T02:44:23.095Z,2.56
2022-09-01T02:45:24.848Z,2.46
2022-09-01T02:46:26.740Z,2.50
2022-09-01T02:47:28.553Z,2.40
2022-09-01T02:48:32.949Z,2.44
2022-09-01T02:49:36.026Z,2.29
2022-09-01T02:50:39.681Z,2.30
2022-09-01T02:51:47.238Z,2.16
2022-09-01T02:52:50.985Z,2.31
2022-09-01T02:53:53.424Z,2.33
2022-09-01T02:54:55.550Z,1.83
2022-09-01T02:55:59.494Z,2.32
2022-09-01T02:57:01.426Z,2.48
2022-09-01T02:58:04.330Z,2.72
2022-09-01T02:59:06.105Z,2.23
2022-09-01T03:00:20.750Z,2.49
2022-09-01T03:01:31.471Z,2.48
2022-09-01T03:02:35.896Z,2.39
2022-09-01T03:03:38.935Z,2.46
2022-09-01T03:04:41.181Z,2.40
2022-09-01T03:05:43.903Z,2.22
2022-09-01T03:06:46.826Z,2.39
2022-09-01T03:07:54.081Z,2.24
2022-09-01T03:09:00.159Z,2.10
2022-09-01T03:10:03.336Z,1.99
2022-09-01T03:11:13.289Z,2.25
2022-09-01T03:12:15.402Z,2.31
2022-09-01T03:13:21.875Z,2.35
2022-09-01T03:14:24.324Z,2.31
2022-09-01T03:15:27.394Z,2.22
2022-09-01T03:16:33.448Z,2.36
2022-09-01T03:17:35.333Z,2.05
2022-09-01T03:18:38.427Z,2.30
2022-09-01T03:19:44.290Z,2.35
2022-09-01T03:20:48.357Z,2.34
2022-09-01T03:21:50.137Z,2.21
2022-09-01T03:22:57.936Z,2.07
2022-09-01T03:24:02.002Z,2.38
2022-09-01T03:25:04.595Z,2.28
2022-09-01T03:26:06.284Z,2.25
2022-09-01T03:27:08.916Z,2.30
2022-09-01T03:28:13.066Z,2.36
2022-09-01T03:29:15.395Z,2.24
2022-09-01T03:30:17.526Z,2.14
2022-09-01T03:31:21.565Z,2.32
2022-09-01T03:32:24.650Z,2.14
2022-09-01T03:33:28.638Z,2.23
2022-09-01T03:34:34.377Z,3.14
2022-09-01T03:35:36.787Z,2.53
2022-09-01T03:36:39.829Z,2.44
2022-09-01T03:37:44.326Z,2.02
2022-09-01T03:38:51.376Z,2.18
2022-09-01T03:39:56.427Z,2.19
2022-09-01T03:41:04.440Z,1.97
2022-09-01T03:42:09.032Z,1.97
2022-09-01T03:43:11.977Z,2.01
2022-09-01T03:44:16.214Z,1.95
2022-09-01T03:45:20.392Z,1.80
2022-09-01T03:46:24.323Z,1.82
2022-09-01T03:47:27.283Z,2.21
2022-09-01T03:48:32.210Z,1.98
2022-09-01T03:49:34.066Z,2.17
2022-09-01T03:50:47.357Z,2.14
2022-09-01T03:51:49.260Z,2.11
2022-09-01T03:52:58.695Z,2.01
2022-09-01T03:54:00.736Z,1.93
2022-09-01T03:55:02.471Z,1.76
2022-09-01T03:56:05.477Z,1.73
2022-09-01T03:57:09.944Z,1.91
2022-09-01T03:58:18.953Z,2.13
2022-09-01T03:59:22.617Z,1.79
2022-09-01T04:00:29.797Z,1.97
2022-09-01T04:01:37.893Z,2.02
2022-09-01T04:02:40.017Z,2.07
2022-09-01T04:03:42.664Z,2.15
2022-09-01T04:04:44.376Z,2.56
2022-09-01T04:05:46.197Z,2.14
2022-09-01T04:06:48.058Z,2.05
2022-09-01T04:07:50.310Z,2.47
2022-09-01T04:08:57.768Z,2.53
2022-09-01T04:09:59.484Z,2.37
2022-09-01T04:11:10.612Z,2.38
2022-09-01T04:12:15.724Z,2.77
2022-09-01T04:13:32.277Z,2.74
2022-09-01T04:14:34.942Z,2.91
2022-09-01T04:15:38.489Z,2.48
2022-09-01T04:16:59.201Z,2.67
2022-09-01T04:18:10.582Z,2.66
2022-09-01T04:19:25.590Z,2.98
2022-09-01T04:20:28.587Z,2.91
2022-09-01T04:21:31.951Z,3.33
2022-09-01T04:22:35.414Z,3.12
2022-09-01T04:23:37.286Z,2.98
2022-09-01T04:24:45.419Z,3.14
2022-09-01T04:25:50.377Z,2.91
2022-09-01T04:26:54.534Z,2.58
2022-09-01T04:27:57.091Z,2.74
2022-09-01T04:28:59.180Z,2.46
2022-09-01T04:30:01.466Z,2.81
2022-09-01T04:31:09.197Z,2.45
2022-09-01T04:32:13.100Z,2.57
2022-09-01T04:33:18.547Z,2.61
2022-09-01T04:34:22.705Z,2.44
2022-09-01T04:35:32.964Z,2.37
2022-09-01T04:36:43.543Z,2.61
2022-09-01T04:37:46.173Z,2.57
2022-09-01T04:38:54.491Z,2.89
2022-09-01T04:39:57.668Z,2.65
2022-09-01T04:41:06.515Z,2.65
2022-09-01T04:42:09.246Z,2.64
2022-09-01T04:43:11.336Z,2.71
2022-09-01T04:44:19.195Z,2.62
2022-09-01T04:45:24.900Z,2.69
2022-09-01T04:46:31.347Z,2.49
2022-09-01T04:47:36.253Z,2.57
2022-09-01T04:48:46.000Z,2.21
2022-09-01T04:49:49.192Z,2.54
2022-09-01T04:50:52.054Z,2.39
2022-09-01T04:52:00.653Z,2.41
2022-09-01T04:53:06.125Z,2.69
2022-09-01T04:54:14.287Z,2.43
2022-09-01T04:55:17.852Z,2.23
2022-09-01T04:56:22.943Z,2.36
2022-09-01T04:57:50.058Z,2.47
2022-09-01T04:58:56.475Z,2.59
2022-09-01T04:59:58.521Z,2.50
2022-09-01T05:01:06.332Z,2.11
2022-09-01T05:02:09.525Z,2.46
2022-09-01T05:03:11.542Z,2.40
2022-09-01T05:04:34.302Z,2.33
2022-09-01T05:05:45.143Z,2.30
2022-09-01T05:06:50.021Z,2.11
2022-09-01T05:07:55.308Z,2.42
2022-09-01T05:08:57.909Z,2.20
2022-09-01T05:10:19.917Z,2.33
2022-09-01T05:12:15.729Z,2.39
2022-09-01T05:13:23.495Z,2.63
2022-09-01T05:14:26.032Z,2.46
2022-09-01T05:15:29.699Z,2.44
2022-09-01T05:16:32.445Z,2.53
2022-09-01T05:17:38.556Z,2.76
2022-09-01T05:18:47.481Z,2.38
2022-09-01T05:19:50.576Z,2.60
2022-09-01T05:20:53.263Z,2.55
2022-09-01T05:21:58.321Z,2.64
2022-09-01T05:23:00.518Z,2.57
2022-09-01T05:24:05.025Z,2.45
2022-09-01T05:25:13.291Z,2.65
2022-09-01T05:26:22.190Z,2.14
2022-09-01T05:27:24.284Z,2.29
2022-09-01T05:28:27.071Z,2.24
2022-09-01T05:29:29.651Z,2.27
2022-09-01T05:30:36.844Z,2.07
2022-09-01T05:31:41.289Z,2.24
2022-09-01T05:32:43.622Z,2.13
2022-09-01T05:33:48.289Z,2.09
2022-09-01T05:34:51.826Z,2.06
2022-09-01T05:36:01.169Z,2.09
2022-09-01T05:37:06.414Z,2.05
2022-09-01T05:38:11.002Z,1.85
2022-09-01T05:39:12.937Z,2.14
2022-09-01T05:40:16.346Z,2.25
2022-09-01T05:41:21.041Z,1.89
2022-09-01T05:42:22.988Z,2.22
2022-09-01T05:43:27.802Z,2.18
2022-09-01T05:44:29.677Z,2.10
2022-09-01T05:45:44.916Z,1.91
2022-09-01T05:46:55.808Z,1.84
2022-09-01T05:47:59.714Z,2.23
2022-09-01T05:49:02.616Z,2.10
2022-09-01T05:50:11.016Z,2.32
2022-09-01T05:51:42.660Z,1.97
2022-09-01T05:52:44.835Z,1.93
2022-09-01T05:53:51.349Z,1.58
2022-09-01T05:54:55.454Z,1.86
2022-09-01T05:55:57.457Z,2.30
2022-09-01T05:57:17.530Z,1.75
2022-09-01T05:58:21.505Z,2.12
2022-09-01T05:59:24.868Z,2.02
2022-09-01T06:00:34.712Z,2.28
2022-09-01T06:01:41.157Z,2.41
2022-09-01T06:02:43.400Z,2.14
2022-09-01T06:03:55.653Z,2.24
2022-09-01T06:05:00.271Z,1.76
2022-09-01T06:06:09.249Z,1.88
2022-09-01T06:07:16.639Z,2.04
2022-09-01T06:08:28.951Z,2.18
2022-09-01T06:09:30.779Z,2.14
2022-09-01T06:10:35.504Z,1.97
2022-09-01T06:11:38.065Z,1.97
2022-09-01T06:12:40.739Z,1.91
2022-09-01T06:13:42.625Z,1.98
2022-09-01T06:14:46.185Z,2.02
2022-09-01T06:15:51.026Z,2.19
2022-09-01T06:16:54.197Z,1.96
2022-09-01T06:17:57.408Z,1.81
2022-09-01T06:18:59.549Z,1.62
2022-09-01T06:20:01.991Z,2.15
2022-09-01T06:21:08.356Z,2.02
2022-09-01T06:22:11.237Z,2.16
2022-09-01T06:23:15.275Z,2.22
2022-09-01T06:24:18.103Z,1.97
2022-09-01T06:25:21.322Z,1.82
2022-09-01T06:26:27.646Z,2.00
2022-09-01T06:27:30.082Z,1.56
2022-09-01T06:28:31.893Z,1.96
2022-09-01T06:29:34.186Z,1.59
2022-09-01T06:30:36.497Z,1.56
2022-09-01T06:31:43.363Z,1.75
2022-09-01T06:32:45.549Z,1.71
2022-09-01T06:33:48.344Z,1.73
2022-09-01T06:34:51.252Z,1.79
2022-09-01T06:35:53.998Z,1.77
2022-09-01T06:36:56.319Z,1.67
2022-09-01T06:38:02.140Z,1.81
2022-09-01T06:39:26.512Z,1.39
2022-09-01T06:40:29.085Z,1.40
2022-09-01T06:41:31.531Z,1.46
2022-09-01T06:42:35.267Z,1.40
2022-09-01T06:43:37.127Z,1.41
2022-09-01T06:44:41.984Z,1.33
2022-09-01T06:45:54.194Z,1.15
2022-09-01T06:46:57.194Z,1.45
2022-09-01T06:48:01.285Z,1.33
2022-09-01T06:49:03.941Z,1.35
2022-09-01T06:50:08.573Z,1.40
2022-09-01T06:51:16.117Z,1.16
2022-09-01T06:52:21.235Z,1.62
2022-09-01T06:54:46.105Z,1.19
2022-09-01T06:55:50.094Z,0.98
2022-09-01T06:56:53.527Z,1.08
2022-09-01T06:58:03.937Z,1.04
2022-09-01T06:59:07.978Z,0.91
2022-09-01T07:00:20.872Z,0.98
2022-09-01T07:01:24.307Z,1.05
2022-09-01T07:02:27.320Z,1.07
2022-09-01T07:04:20.219Z,1.23
2022-09-01T07:07:01.812Z,0.93
2022-09-01T07:10:18.578Z,1.13
2022-09-01T07:13:07.362Z,1.06
2022-09-01T07:14:16.674Z,0.83
2022-09-01T07:16:51.789Z,1.00
2022-09-01T07:17:58.281Z,0.85
2022-09-01T07:19:02.203Z,1.04
2022-09-01T07:21:40.951Z,1.01
2022-09-01T07:23:14.183Z,0.93
2022-09-01T07:24:10.419Z,1.27
2022-09-01T07:25:14.309Z,1.53
2022-09-01T07:26:47.277Z,1.35
2022-09-01T07:27:50.550Z,1.73
2022-09-01T07:29:00.939Z,1.56
2022-09-01T07:30:03.803Z,1.24
2022-09-01T07:32:47.539Z,1.18
2022-09-01T07:33:54.319Z,1.11
2022-09-01T07:34:56.808Z,1.07
2022-09-01T07:42:56.886Z,1.06
2022-09-01T07:42:57.573Z,1.45
2022-09-01T07:43:37.601Z,0.87
2022-09-01T07:45:35.211Z,0.93
2022-09-01T07:46:40.409Z,1.11
2022-09-01T07:47:53.580Z,0.76
2022-09-01T07:49:29.635Z,0.93
2022-09-01T07:51:44.129Z,0.86
2022-09-01T07:52:49.579Z,0.94
2022-09-01T07:53:51.361Z,0.91
2022-09-01T07:54:53.169Z,0.80
2022-09-01T07:55:56.354Z,0.76
2022-09-01T07:56:58.206Z,0.77
2022-09-01T07:57:59.954Z,0.91
2022-09-01T07:59:02.248Z,0.92
2022-09-01T08:00:06.526Z,0.90
2022-09-01T08:01:24.406Z,0.91
2022-09-01T08:02:28.002Z,1.04
2022-09-01T08:03:31.062Z,0.81
2022-09-01T08:04:34.517Z,0.74
2022-09-01T08:05:36.442Z,0.99
2022-09-01T08:06:38.750Z,0.76
2022-09-01T08:07:57.653Z,0.85
2022-09-01T08:09:12.259Z,0.77
2022-09-01T08:10:33.593Z,0.88
2022-09-01T08:11:58.572Z,1.09
2022-09-01T08:12:58.341Z,1.01
2022-09-01T08:14:01.293Z,1.07
2022-09-01T08:15:13.874Z,1.05
2022-09-01T08:16:39.319Z,1.18
2022-09-01T08:17:52.184Z,1.55
2022-09-01T08:18:57.079Z,1.59
2022-09-01T08:20:03.312Z,1.52
2022-09-01T08:21:27.013Z,1.49
2022-09-01T08:22:38.090Z,2.11
2022-09-01T08:23:54.898Z,2.38
2022-09-01T08:24:57.094Z,2.20
2022-09-01T08:25:58.935Z,2.41
2022-09-01T08:27:00.594Z,2.54
2022-09-01T08:28:06.894Z,2.72
2022-09-01T08:29:09.541Z,2.55
2022-09-01T08:30:15.845Z,2.89
2022-09-01T08:31:20.284Z,2.75
2022-09-01T08:32:22.972Z,2.35
2022-09-01T08:33:26.066Z,2.46
2022-09-01T08:34:28.078Z,2.23
2022-09-01T08:35:29.801Z,1.87
2022-09-01T08:36:35.413Z,1.48
2022-09-01T08:37:38.404Z,1.34
2022-09-01T08:38:41.435Z,1.74
2022-09-01T08:39:43.683Z,1.55
2022-09-01T08:40:56.370Z,1.50
2022-09-01T08:42:20.182Z,1.38
2022-09-01T08:43:36.975Z,1.14
2022-09-01T08:44:55.170Z,1.17
2022-09-01T08:46:04.041Z,0.97
2022-09-01T08:47:15.327Z,0.97
2022-09-01T08:49:51.350Z,0.68
2022-09-01T08:51:35.162Z,0.69
2022-09-01T08:52:44.698Z,0.64
2022-09-01T08:53:59.814Z,0.74
2022-09-01T08:55:31.918Z,0.67
2022-09-01T08:56:37.489Z,0.56
2022-09-01T08:57:44.280Z,0.96
2022-09-01T09:01:04.874Z,0.53
2022-09-01T09:02:33.801Z,0.51
2022-09-01T09:03:54.014Z,0.56
2022-09-01T09:04:58.673Z,0.72
2022-09-01T09:06:41.835Z,0.61
2022-09-01T09:08:17.241Z,0.73
2022-09-01T09:09:19.273Z,0.50
2022-09-01T09:11:01.438Z,0.67
2022-09-01T09:12:10.831Z,0.82
2022-09-01T09:13:40.835Z,0.75
2022-09-01T09:15:06.969Z,0.81
2022-09-01T09:16:26.162Z,0.47
2022-09-01T09:17:37.298Z,0.55
2022-09-01T09:18:55.861Z,0.46
2022-09-01T09:19:58.052Z,0.54
2022-09-01T09:21:27.677Z,0.57
2022-09-01T09:22:29.398Z,0.44
2022-09-01T09:23:39.397Z,0.61
2022-09-01T09:25:08.425Z,0.68
2022-09-01T09:26:10.105Z,0.69
2022-09-01T09:27:30.740Z,0.57
2022-09-01T09:28:32.466Z,0.65
2022-09-01T09:29:34.425Z,0.76
2022-09-01T09:30:38.389Z,0.66
2022-09-01T09:31:49.924Z,0.64
2022-09-01T09:34:39.718Z,0.52
2022-09-01T09:35:44.246Z,0.57
2022-09-01T09:36:53.893Z,0.64
2022-09-01T09:38:29.054Z,0.57
2022-09-01T09:39:31.005Z,0.55
2022-09-01T09:40:47.892Z,0.54
2022-09-01T09:42:12.082Z,0.58
2022-09-01T09:43:16.145Z,0.45
2022-09-01T09:44:29.413Z,0.70
2022-09-01T09:45:41.614Z,0.49
2022-09-01T09:46:47.473Z,0.73
2022-09-01T09:47:49.599Z,0.71
2022-09-01T09:49:15.381Z,0.70
2022-09-01T09:50:17.427Z,0.65
2022-09-01T09:51:22.774Z,0.69
2022-09-01T09:52:24.509Z,0.50
2022-09-01T09:53:29.955Z,0.36
2022-09-01T09:54:33.852Z,0.53
2022-09-01T09:55:35.779Z,0.44
2022-09-01T09:56:37.638Z,0.65
2022-09-01T09:57:41.768Z,0.67
2022-09-01T09:58:46.693Z,0.76
2022-09-01T10:00:00.808Z,0.74
2022-09-01T10:01:05.889Z,0.57
2022-09-01T10:02:33.793Z,0.57
2022-09-01T10:03:45.047Z,0.52
2022-09-01T10:04:46.814Z,0.63
2022-09-01T10:05:52.828Z,0.42
2022-09-01T10:06:55.578Z,0.38
2022-09-01T10:07:58.403Z,0.47
2022-09-01T10:09:08.261Z,0.50
2022-09-01T10:10:40.402Z,0.51
2022-09-01T10:11:48.277Z,0.59
2022-09-01T10:12:56.677Z,0.65
2022-09-01T10:13:58.915Z,0.59
2022-09-01T10:15:07.100Z,0.49
2022-09-01T10:16:26.881Z,0.78
2022-09-01T10:17:35.933Z,0.76
2022-09-01T10:18:41.798Z,0.71
2022-09-01T10:19:54.207Z,0.59
2022-09-01T10:21:04.234Z,0.69
2022-09-01T10:22:08.329Z,0.68
2022-09-01T10:23:15.251Z,0.57
2022-09-01T10:24:32.045Z,0.45
2022-09-01T10:25:35.666Z,0.75
2022-09-01T10:26:41.250Z,0.56
2022-09-01T10:27:51.160Z,0.53
2022-09-01T10:29:01.803Z,0.71
2022-09-01T10:30:19.809Z,0.78
2022-09-01T10:31:22.847Z,0.50
2022-09-01T10:32:50.800Z,0.44
2022-09-01T10:33:58.641Z,0.58
2022-09-01T10:35:03.177Z,0.53
2022-09-01T10:36:07.833Z,0.66
2022-09-01T10:37:15.890Z,0.72
2022-09-01T10:38:23.198Z,0.68
2022-09-01T10:39:30.514Z,0.59
2022-09-01T10:40:49.648Z,0.67
2022-09-01T10:41:59.733Z,0.53
2022-09-01T10:43:26.157Z,0.62
2022-09-01T10:44:58.205Z,0.57
2022-09-01T10:46:06.048Z,0.59
2022-09-01T10:47:14.696Z,0.56
2022-09-01T10:48:30.487Z,0.44
2022-09-01T10:49:32.569Z,0.60
2022-09-01T10:50:35.997Z,0.53
2022-09-01T10:51:50.466Z,0.50
2022-09-01T10:52:57.121Z,0.51
2022-09-01T10:54:03.540Z,0.48
2022-09-01T10:55:23.993Z,0.65
2022-09-01T10:56:44.378Z,0.60
2022-09-01T10:59:29.804Z,0.74
2022-09-01T10:59:43.301Z,0.63
2022-09-01T11:01:10.680Z,0.70
2022-09-01T11:02:28.123Z,0.70
2022-09-01T11:03:54.355Z,0.61
2022-09-01T11:04:58.218Z,0.71
2022-09-01T11:06:12.305Z,0.75
2022-09-01T11:07:44.372Z,0.76
2022-09-01T11:09:03.682Z,0.69
2022-09-01T11:10:37.021Z,0.82
2022-09-01T11:11:51.892Z,0.96
2022-09-01T11:13:10.335Z,0.81
2022-09-01T11:14:23.639Z,0.70
2022-09-01T11:15:39.131Z,0.64
2022-09-01T11:16:46.705Z,0.66
2022-09-01T11:17:52.135Z,0.90
2022-09-01T11:18:55.250Z,0.79
2022-09-01T11:20:20.432Z,0.62
2022-09-01T11:21:33.185Z,0.86
2022-09-01T11:22:46.577Z,0.98
2022-09-01T11:23:48.301Z,0.86
2022-09-01T11:25:11.848Z,0.90
2022-09-01T11:26:32.525Z,0.91
2022-09-01T11:27:49.156Z,0.87
2022-09-01T11:28:51.158Z,0.83
2022-09-01T11:30:09.128Z,0.84
2022-09-01T11:31:20.630Z,0.98
2022-09-01T11:32:27.994Z,0.95
2022-09-01T11:33:29.560Z,0.91
2022-09-01T11:34:31.816Z,0.98
2022-09-01T11:35:33.716Z,0.91
2022-09-01T11:36:48.382Z,1.00
2022-09-01T11:37:55.255Z,1.02
2022-09-01T11:39:17.570Z,0.97
2022-09-01T11:40:29.628Z,1.38
2022-09-01T11:41:40.203Z,1.13
2022-09-01T11:42:46.807Z,1.00
2022-09-01T11:43:54.220Z,0.98
2022-09-01T11:45:04.612Z,0.88
2022-09-01T11:46:25.063Z,1.07
2022-09-01T11:47:55.228Z,0.96
2022-09-01T11:48:59.746Z,1.00
2022-09-01T11:50:34.565Z,1.04
2022-09-01T11:51:47.885Z,1.04
2022-09-01T11:52:57.064Z,0.94
2022-09-01T11:54:00.678Z,1.10
2022-09-01T11:55:04.722Z,1.03
2022-09-01T11:56:20.112Z,0.71
2022-09-01T11:57:31.755Z,1.00
2022-09-01T11:58:39.179Z,0.78
2022-09-01T11:59:43.866Z,1.04
2022-09-01T12:00:45.540Z,0.81
2022-09-01T12:01:47.287Z,0.83
2022-09-01T12:02:52.173Z,0.80
2022-09-01T12:03:54.303Z,0.94
2022-09-01T12:04:57.148Z,1.01
2022-09-01T12:06:04.008Z,0.95
2022-09-01T12:07:11.642Z,1.02
2022-09-01T12:08:18.331Z,0.94
2022-09-01T12:09:44.034Z,0.93
2022-09-01T12:10:47.066Z,0.89
2022-09-01T12:11:49.026Z,1.14
2022-09-01T12:13:02.523Z,0.99
2022-09-01T12:14:11.444Z,1.18
2022-09-01T12:15:25.936Z,1.00
2022-09-01T12:16:29.965Z,1.09
2022-09-01T12:17:31.660Z,0.76
2022-09-01T12:18:39.664Z,0.88
2022-09-01T12:19:41.293Z,0.97
2022-09-01T12:20:43.209Z,1.03
2022-09-01T12:21:59.845Z,0.88
2022-09-01T12:23:03.588Z,0.96
2022-09-01T12:24:21.799Z,0.86
2022-09-01T12:25:29.209Z,0.80
2022-09-01T12:26:31.001Z,1.00
2022-09-01T12:27:33.634Z,0.87
2022-09-01T12:28:36.181Z,0.88
2022-09-01T12:29:38.875Z,0.89
2022-09-01T12:30:44.703Z,0.92
2022-09-01T12:31:52.471Z,0.91
2022-09-01T12:34:32.953Z,0.80
2022-09-01T12:35:34.595Z,0.81
2022-09-01T12:36:37.195Z,0.75
2022-09-01T12:37:38.945Z,0.75
2022-09-01T12:38:40.680Z,0.84
2022-09-01T12:39:49.007Z,0.80
2022-09-01T12:40:54.453Z,0.94
2022-09-01T12:42:07.343Z,0.90
2022-09-01T12:43:09.020Z,0.87
2022-09-01T12:44:31.433Z,0.79
2022-09-01T12:45:45.678Z,0.77
2022-09-01T12:46:47.478Z,1.10
2022-09-01T12:47:50.642Z,0.94
2022-09-01T12:48:52.634Z,0.89
2022-09-01T12:49:55.686Z,1.19
2022-09-01T12:51:04.745Z,1.21
2022-09-01T12:52:28.168Z,1.11
2022-09-01T12:53:36.741Z,0.83
2022-09-01T12:54:39.714Z,0.81
2022-09-01T12:56:17.070Z,0.80
2022-09-01T12:57:35.453Z,0.70
2022-09-01T12:58:37.209Z,0.98
2022-09-01T12:59:38.898Z,0.85
2022-09-01T13:00:58.440Z,0.55
2022-09-01T13:02:26.994Z,0.80
2022-09-01T13:03:30.708Z,0.75
2022-09-01T13:04:34.388Z,0.55
2022-09-01T13:06:03.796Z,0.74
2022-09-01T13:07:07.693Z,0.90
2022-09-01T13:08:14.676Z,0.85
2022-09-01T13:09:16.638Z,0.64
2022-09-01T13:10:18.674Z,0.71
2022-09-01T13:11:20.750Z,0.75
2022-09-01T13:12:22.412Z,0.95
2022-09-01T13:13:26.866Z,0.79
2022-09-01T13:14:29.870Z,0.63
2022-09-01T13:15:32.638Z,0.77
2022-09-01T13:16:35.623Z,0.77
2022-09-01T13:17:38.401Z,0.79
2022-09-01T13:20:05.742Z,0.91
2022-09-01T13:21:07.942Z,0.82
2022-09-01T13:22:10.459Z,0.80
2022-09-01T13:23:12.830Z,0.78
2022-09-01T13:24:14.751Z,0.57
2022-09-01T13:25:20.267Z,0.61
2022-09-01T13:26:22.568Z,0.61
2022-09-01T13:27:24.381Z,1.04
2022-09-01T13:28:27.011Z,0.84
2022-09-01T13:29:28.750Z,0.92
2022-09-01T13:30:30.470Z,0.73
2022-09-01T13:31:32.659Z,0.79
2022-09-01T13:32:34.944Z,0.76
2022-09-01T13:34:09.300Z,0.91
2022-09-01T13:34:58.644Z,0.85
2022-09-01T13:36:42.816Z,0.97
2022-09-01T13:37:24.379Z,0.98
2022-09-01T13:38:26.168Z,0.85
2022-09-01T13:39:27.845Z,0.86
2022-09-01T13:40:31.065Z,0.87
2022-09-01T13:41:32.813Z,0.80
2022-09-01T13:42:34.811Z,0.88
2022-09-01T13:43:37.469Z,0.97
2022-09-01T13:44:42.545Z,1.01
2022-09-01T13:45:45.233Z,0.92
2022-09-01T13:48:17.449Z,0.90
2022-09-01T13:52:04.045Z,1.08
2022-09-01T13:53:06.662Z,0.81
2022-09-01T13:54:08.382Z,0.89
2022-09-01T13:55:14.197Z,0.79
2022-09-01T13:56:15.854Z,0.87
2022-09-01T13:57:17.854Z,1.10
2022-09-01T13:58:20.383Z,0.95
2022-09-01T13:59:22.589Z,0.88
2022-09-01T14:00:29.318Z,0.97
2022-09-01T14:01:31.028Z,1.06
2022-09-01T14:02:32.696Z,0.87
2022-09-01T14:03:34.445Z,0.91
2022-09-01T14:04:36.315Z,0.82
2022-09-01T14:05:42.291Z,0.96
2022-09-01T14:06:44.838Z,1.02
2022-09-01T14:07:48.838Z,0.83
2022-09-01T14:08:50.529Z,0.96
2022-09-01T14:09:52.177Z,1.02
2022-09-01T14:10:54.354Z,1.05
2022-09-01T14:11:57.055Z,0.95
2022-09-01T14:13:00.342Z,1.02
2022-09-01T14:14:02.517Z,1.24
2022-09-01T14:15:16.621Z,0.90
2022-09-01T14:16:19.720Z,0.88
2022-09-01T14:17:21.472Z,0.93
2022-09-01T14:18:23.232Z,0.96
2022-09-01T14:19:24.911Z,0.84
2022-09-01T14:20:36.072Z,1.27
2022-09-01T14:21:39.424Z,1.17
2022-09-01T14:22:41.594Z,1.01
2022-09-01T14:23:45.796Z,1.13
2022-09-01T14:24:47.859Z,0.82
2022-09-01T14:25:52.654Z,0.99
2022-09-01T14:26:54.319Z,0.93
2022-09-01T14:27:57.178Z,1.01
2022-09-01T14:29:02.543Z,0.96
2022-09-01T14:30:09.107Z,0.96
2022-09-01T14:31:12.481Z,1.13
2022-09-01T14:32:14.144Z,1.29
2022-09-01T14:33:16.931Z,1.49
2022-09-01T14:34:18.982Z,1.26
2022-09-01T14:35:24.813Z,0.99
2022-09-01T14:36:27.020Z,1.05
2022-09-01T14:37:28.794Z,1.16
2022-09-01T14:38:32.131Z,1.31
2022-09-01T14:39:34.137Z,1.06
2022-09-01T14:40:38.074Z,1.14
2022-09-01T14:41:39.824Z,1.06
2022-09-01T14:42:48.990Z,0.97
2022-09-01T14:43:59.749Z,0.98
2022-09-01T14:45:05.028Z,1.18
2022-09-01T14:46:10.811Z,1.21
2022-09-01T14:47:19.137Z,1.38
2022-09-01T14:48:21.974Z,1.23
2022-09-01T14:49:24.301Z,1.27
2022-09-01T14:50:29.039Z,1.21
2022-09-01T14:52:56.350Z,1.13
2022-09-01T14:53:58.190Z,1.43
2022-09-01T14:54:59.919Z,1.53
2022-09-01T14:56:03.076Z,1.23
2022-09-01T14:58:29.662Z,1.31
2022-09-01T14:59:32.150Z,1.49
2022-09-01T15:00:35.890Z,1.31
2022-09-01T15:01:37.752Z,1.39
2022-09-01T15:02:42.109Z,1.28
2022-09-01T15:03:45.974Z,1.23
2022-09-01T15:04:48.079Z,1.08
2022-09-01T15:05:50.985Z,1.35
2022-09-01T15:06:52.599Z,1.07
2022-09-01T15:07:54.800Z,1.31
2022-09-01T15:08:56.486Z,1.19
2022-09-01T15:09:59.024Z,1.20
2022-09-01T15:11:01.389Z,1.13
2022-09-01T15:12:03.362Z,1.05
2022-09-01T15:13:05.086Z,0.96
2022-09-01T15:14:06.737Z,1.12
2022-09-01T15:15:09.774Z,1.04
2022-09-01T15:16:18.041Z,0.88
2022-09-01T15:17:19.746Z,0.90
2022-09-01T15:18:21.594Z,1.16
2022-09-01T15:19:24.667Z,0.85
2022-09-01T15:20:46.346Z,0.94
2022-09-01T15:21:48.395Z,1.09
2022-09-01T15:22:51.591Z,1.06
2022-09-01T15:23:54.087Z,0.94
2022-09-01T15:24:55.897Z,0.74
2022-09-01T15:25:57.950Z,0.87
2022-09-01T15:26:59.698Z,0.81